Upstream stations:
Downstream station:
SHEF ID: PAWO2 Black Bear Creek at Pawnee, OK
STATION TYPE:
Regulating: Stage = 17.00, Flow = 9998
PRECIP STAGE RIV-FLOW BAT-LOAD
in ft cfs volt
Ccp-Rev Ccp-Rev Ccp-Rev Ccp-Rev
(US/Central)
03/08 00:00 0.00 3.39 250 12.65
03/08 01:00 0.00 3.37 245 12.65
03/08 02:00 0.00 3.36 243 12.65
03/08 03:00 0.00 3.35 240 12.65
03/08 04:00 0.00 3.33 236 12.65
03/08 05:00 0.00 3.31 231 12.57
03/08 06:00 0.00 3.31 231 12.57
03/08 07:00 0.00 3.30 229 12.57
03/08 08:00 0.00 3.27 222 12.57
03/08 09:00 0.00 3.26 219 12.65
03/08 10:00 0.00 3.24 215 12.73
03/08 11:00 0.00 3.21 208 12.97
03/08 12:00 0.00 3.22 210 13.29
03/08 13:00 0.00 3.16 197 13.21
03/08 14:00 0.00 3.17 199 13.13
03/08 15:00 0.00 3.18 201 13.13
03/08 16:00 0.00 3.17 199 13.05
03/08 17:00 0.00 3.16 197 12.97
03/08 18:00 0.00 3.14 193 12.89
03/08 19:00 0.00 3.13 191 12.81
03/08 20:00 0.00 3.13 191 12.73
03/08 21:00 0.00 3.12 189 12.73
03/08 22:00 0.00 3.10 184 12.73
03/08 23:00 ---- ---- ---- 12.73